Time;durP1;ratioP1;P1;durP2;ratioP2;P2;SDS_P1;SDS_P2;PMS_P1;PMS_P2;Temp;Humidity;BMP_temperature;BMP_pressure;BME280_temperature;BME280_humidity;BME280_pressure;Samples;Min_cycle;Max_cycle;Signal;HPM_P1;HPM_P2
2022/10/18 00:00:52;;;;;;;6.80;5.97;;;15.50;99.90;;;;;;5006106;28;20985;-51
2022/10/18 00:03:19;;;;;;;7.50;5.10;;;15.50;99.90;;;;;;5004215;28;20503;-51
2022/10/18 00:05:47;;;;;;;8.77;4.00;;;15.50;99.90;;;;;;5001322;28;20512;-51
2022/10/18 00:08:13;;;;;;;6.53;4.07;;;15.50;99.90;;;;;;5008830;28;20514;-51
2022/10/18 00:10:40;;;;;;;7.17;5.80;;;15.50;99.90;;;;;;5005943;28;20491;-51
2022/10/18 00:13:06;;;;;;;6.77;4.73;;;15.50;99.90;;;;;;5007244;28;20504;-51
2022/10/18 00:15:34;;;;;;;10.47;5.20;;;15.50;99.90;;;;;;5006256;28;20523;-51
2022/10/18 00:18:01;;;;;;;5.77;5.17;;;15.50;99.90;;;;;;5003386;28;20492;-51
2022/10/18 00:20:28;;;;;;;8.67;4.90;;;15.50;99.90;;;;;;5001559;28;20888;-51
2022/10/18 00:22:55;;;;;;;5.83;4.73;;;15.50;99.90;;;;;;5007550;28;20887;-51
2022/10/18 00:25:21;;;;;;;5.40;4.90;;;15.50;99.90;;;;;;5007239;28;20507;-51
2022/10/18 00:27:48;;;;;;;8.67;5.33;;;15.50;99.90;;;;;;4999439;28;20484;-50
2022/10/18 00:30:14;;;;;;;5.97;5.40;;;15.50;99.90;;;;;;5007299;28;20906;-52
2022/10/18 00:32:42;;;;;;;6.57;5.90;;;15.50;99.90;;;;;;5006608;28;20483;-51
2022/10/18 00:35:09;;;;;;;4.87;4.37;;;15.50;99.90;;;;;;5006107;28;20514;-51
2022/10/18 00:37:36;;;;;;;5.43;4.73;;;15.50;99.90;;;;;;5009420;28;20776;-50
2022/10/18 00:40:04;;;;;;;13.37;5.20;;;15.50;99.90;;;;;;5005950;28;20570;-52
2022/10/18 00:42:33;;;;;;;5.40;4.40;;;15.50;99.90;;;;;;5003775;28;20491;-50
2022/10/18 00:45:12;;;;;;;5.80;4.17;;;15.50;99.90;;;;;;5006409;28;20479;-51
2022/10/18 00:47:39;;;;;;;5.17;4.67;;;15.50;99.90;;;;;;5011483;28;20475;-51
2022/10/18 00:50:08;;;;;;;5.67;4.80;;;15.50;99.90;;;;;;5008744;28;21081;-51
2022/10/18 00:52:39;;;;;;;7.73;5.53;;;15.60;99.90;;;;;;5011447;28;20571;-51
2022/10/18 00:55:07;;;;;;;10.37;4.90;;;15.60;99.90;;;;;;5010200;28;20920;-51
2022/10/18 00:57:34;;;;;;;5.17;4.77;;;15.60;99.90;;;;;;5004719;28;20482;-50
2022/10/18 01:00:03;;;;;;;5.10;4.60;;;15.60;99.90;;;;;;5008283;28;20487;-52
2022/10/18 01:02:31;;;;;;;9.30;5.77;;;15.60;99.90;;;;;;5009261;28;20467;-51
2022/10/18 01:04:58;;;;;;;6.93;5.60;;;15.70;99.90;;;;;;5008919;28;20510;-51
2022/10/18 01:07:39;;;;;;;5.23;4.80;;;15.70;99.90;;;;;;5009224;28;20553;-51
2022/10/18 01:10:29;;;;;;;8.30;6.73;;;15.80;99.90;;;;;;5010209;28;20468;-51
2022/10/18 01:13:07;;;;;;;8.20;6.43;;;15.80;99.90;;;;;;5010660;28;20973;-50
2022/10/18 01:15:41;;;;;;;12.83;5.73;;;15.80;99.90;;;;;;5008371;28;20926;-51
2022/10/18 01:18:16;;;;;;;13.47;7.90;;;15.90;99.90;;;;;;5009470;28;20557;-51
2022/10/18 01:21:04;;;;;;;14.00;7.10;;;15.90;99.90;;;;;;5005930;28;20459;-51
2022/10/18 01:23:57;;;;;;;6.77;6.00;;;16.00;99.90;;;;;;5007378;28;20494;-51
2022/10/18 01:26:36;;;;;;;10.63;8.20;;;16.00;99.90;;;;;;5009016;28;20519;-50
2022/10/18 01:29:21;;;;;;;9.20;8.27;;;16.00;99.90;;;;;;5008917;28;20492;-50
2022/10/18 01:31:53;;;;;;;11.10;7.37;;;16.00;99.90;;;;;;5006776;28;20900;-51
2022/10/18 01:34:20;;;;;;;17.77;8.23;;;16.10;99.90;;;;;;5003527;28;20499;-51
2022/10/18 01:36:50;;;;;;;13.40;9.93;;;16.00;99.90;;;;;;5006098;28;20492;-51
2022/10/18 01:39:21;;;;;;;12.77;7.87;;;16.10;99.90;;;;;;5007587;28;20475;-51
2022/10/18 01:41:50;;;;;;;17.10;9.40;;;16.10;99.90;;;;;;5009265;28;20495;-51
2022/10/18 01:44:21;;;;;;;11.20;7.97;;;16.10;99.90;;;;;;5008448;28;20700;-51
2022/10/18 01:46:50;;;;;;;13.47;8.27;;;16.20;99.90;;;;;;5009825;28;20581;-51
2022/10/18 01:49:17;;;;;;;13.73;9.70;;;16.20;99.90;;;;;;5000774;28;20457;-51
2022/10/18 01:51:44;;;;;;;12.27;10.43;;;16.30;99.90;;;;;;5008192;28;20522;-52
2022/10/18 01:54:15;;;;;;;10.50;9.27;;;16.20;99.90;;;;;;5005111;28;20495;-52
2022/10/18 01:56:52;;;;;;;13.80;10.07;;;16.30;99.90;;;;;;5005542;28;20997;-51
2022/10/18 01:59:45;;;;;;;13.80;9.20;;;16.30;96.20;;;;;;5010750;28;20529;-51
2022/10/18 02:02:23;;;;;;;10.40;9.40;;;16.40;97.60;;;;;;4999639;28;20508;-51
2022/10/18 02:04:59;;;;;;;14.50;10.83;;;16.30;95.60;;;;;;5005934;28;20490;-50
2022/10/18 02:07:33;;;;;;;12.23;10.93;;;16.40;93.10;;;;;;5008064;28;20475;-51
2022/10/18 02:10:07;;;;;;;10.63;9.27;;;16.40;89.90;;;;;;5011284;28;20483;-51
2022/10/18 02:12:34;;;;;;;16.30;10.57;;;16.40;93.40;;;;;;5007678;28;21051;-51
2022/10/18 02:15:03;;;;;;;15.00;9.87;;;16.40;92.50;;;;;;5009108;28;20926;-51
2022/10/18 02:17:32;;;;;;;11.50;10.30;;;16.40;90.30;;;;;;5007476;28;20457;-51
2022/10/18 02:20:02;;;;;;;12.63;10.77;;;16.40;88.10;;;;;;5007561;28;20549;-51
2022/10/18 02:22:32;;;;;;;13.30;10.00;;;16.40;84.50;;;;;;5007289;28;22460;-51
2022/10/18 02:25:02;;;;;;;13.03;10.90;;;16.40;80.80;;;;;;5008057;28;20553;-51
2022/10/18 02:27:28;;;;;;;13.60;12.27;;;16.40;79.80;;;;;;5006527;28;20480;-51
2022/10/18 02:29:55;;;;;;;15.00;11.10;;;16.40;77.00;;;;;;5011249;28;20526;-50
2022/10/18 02:32:29;;;;;;;16.03;12.00;;;16.40;75.60;;;;;;5004473;28;20518;-51
2022/10/18 02:35:00;;;;;;;15.20;11.40;;;16.40;72.30;;;;;;5008858;28;20480;-51
2022/10/18 02:37:31;;;;;;;20.63;11.60;;;16.50;69.60;;;;;;5005491;28;20495;-52
2022/10/18 02:39:58;;;;;;;13.10;11.20;;;16.50;69.60;;;;;;5011622;28;20471;-51
2022/10/18 02:42:24;;;;;;;12.90;11.37;;;16.50;68.80;;;;;;5005517;28;20553;-50
2022/10/18 02:44:51;;;;;;;15.60;11.33;;;16.50;68.10;;;;;;5010366;28;20487;-51
2022/10/18 02:47:18;;;;;;;15.60;10.80;;;16.50;67.60;;;;;;5003125;28;20476;-51
2022/10/18 02:49:44;;;;;;;10.93;9.90;;;16.50;66.30;;;;;;5006442;28;20491;-51
2022/10/18 02:52:12;;;;;;;16.37;11.80;;;16.40;68.30;;;;;;5007798;28;20519;-51
2022/10/18 02:54:39;;;;;;;15.40;11.67;;;16.50;66.00;;;;;;5003312;28;20491;-51
2022/10/18 02:57:05;;;;;;;19.10;11.37;;;16.40;65.00;;;;;;5004816;28;20522;-51
2022/10/18 02:59:32;;;;;;;12.90;11.20;;;16.40;63.50;;;;;;5005972;28;20881;-51
2022/10/18 03:01:58;;;;;;;16.13;11.10;;;16.40;63.00;;;;;;5005935;28;20977;-51
2022/10/18 03:04:25;;;;;;;12.77;11.47;;;16.40;61.10;;;;;;5007828;28;21168;-51
2022/10/18 03:06:51;;;;;;;15.23;11.03;;;16.40;60.00;;;;;;5004481;28;20885;-51
2022/10/18 03:09:19;;;;;;;13.50;11.53;;;16.40;58.50;;;;;;5005826;28;20541;-51
2022/10/18 03:11:46;;;;;;;16.43;11.50;;;16.30;57.40;;;;;;5007010;28;20537;-51
2022/10/18 03:14:12;;;;;;;14.40;12.20;;;16.30;55.30;;;;;;5007069;28;20541;-52
2022/10/18 03:16:39;;;;;;;12.80;11.40;;;16.30;56.20;;;;;;5002814;28;20521;-52
2022/10/18 03:19:06;;;;;;;12.70;11.40;;;16.30;54.10;;;;;;5001213;28;20838;-52
2022/10/18 03:21:32;;;;;;;11.93;10.83;;;16.30;51.80;;;;;;5007451;28;20986;-51
2022/10/18 03:23:59;;;;;;;16.33;10.87;;;16.20;50.90;;;;;;5006572;28;20463;-52
2022/10/18 03:26:27;;;;;;;12.60;11.13;;;16.30;49.00;;;;;;5007004;28;20483;-52
2022/10/18 03:28:53;;;;;;;13.00;11.47;;;16.30;46.00;;;;;;5005754;28;20920;-52
2022/10/18 03:31:20;;;;;;;11.70;10.37;;;16.30;44.50;;;;;;5002504;28;20492;-51
2022/10/18 03:33:47;;;;;;;13.90;9.97;;;16.20;41.80;;;;;;5002839;28;20550;-51
2022/10/18 03:36:13;;;;;;;14.10;9.80;;;16.20;41.20;;;;;;5007383;28;20479;-51
2022/10/18 03:38:41;;;;;;;12.60;11.07;;;16.20;38.50;;;;;;5006917;28;20997;-52
2022/10/18 03:41:08;;;;;;;15.00;12.50;;;16.10;37.50;;;;;;5007239;28;20459;-50
2022/10/18 03:43:35;;;;;;;13.10;11.17;;;16.10;33.50;;;;;;5001469;28;20520;-51
2022/10/18 03:46:02;;;;;;;14.90;8.90;;;16.10;30.40;;;;;;5002407;28;21257;-51
2022/10/18 03:48:29;;;;;;;15.33;10.23;;;16.10;29.50;;;;;;5005632;28;20513;-51
2022/10/18 03:50:55;;;;;;;11.07;9.60;;;16.00;26.70;;;;;;5006596;28;20883;-51
2022/10/18 03:53:22;;;;;;;14.83;10.27;;;16.00;26.40;;;;;;5006294;28;21498;-51
2022/10/18 03:55:51;;;;;;;13.03;9.40;;;16.00;23.40;;;;;;4999443;28;20492;-51
2022/10/18 03:58:17;;;;;;;11.80;10.37;;;16.00;21.70;;;;;;5002695;28;20455;-51
2022/10/18 04:00:48;;;;;;;12.57;9.40;;;16.00;20.80;;;;;;5009597;28;20526;-51
2022/10/18 04:03:15;;;;;;;11.33;9.63;;;15.90;77.10;;;;;;5000848;28;20550;-51
2022/10/18 04:05:41;;;;;;;14.20;8.93;;;15.90;94.90;;;;;;5004258;28;20527;-51
2022/10/18 04:08:08;;;;;;;10.20;9.20;;;15.90;99.90;;;;;;5007472;28;20542;-51
2022/10/18 04:10:36;;;;;;;11.07;9.40;;;15.90;99.90;;;;;;5009207;28;20464;-51
2022/10/18 04:13:03;;;;;;;11.13;9.30;;;15.80;99.90;;;;;;5007310;28;20451;-51
2022/10/18 04:15:29;;;;;;;15.37;9.33;;;15.80;99.90;;;;;;5006931;28;20573;-51
2022/10/18 04:17:57;;;;;;;12.03;9.33;;;15.80;99.90;;;;;;5008133;28;20502;-52
2022/10/18 04:20:24;;;;;;;12.23;8.73;;;15.80;99.90;;;;;;4999620;28;20464;-51
2022/10/18 04:22:53;;;;;;;9.97;8.97;;;15.80;99.90;;;;;;5009671;28;20517;-50
2022/10/18 04:25:20;;;;;;;10.10;8.80;;;15.80;99.90;;;;;;5008153;28;20505;-51
2022/10/18 04:27:47;;;;;;;13.27;9.10;;;15.70;99.90;;;;;;5011144;28;20487;-50
2022/10/18 04:30:14;;;;;;;9.97;8.97;;;15.70;99.90;;;;;;5013123;28;20495;-51
2022/10/18 04:32:41;;;;;;;17.63;8.53;;;15.70;99.90;;;;;;5011416;28;20495;-51
2022/10/18 04:35:10;;;;;;;10.80;8.20;;;15.60;99.90;;;;;;5006845;28;20850;-51
2022/10/18 04:37:37;;;;;;;8.87;8.00;;;15.60;99.90;;;;;;5005499;28;20556;-51
2022/10/18 04:40:04;;;;;;;16.87;9.80;;;15.60;99.90;;;;;;5009729;28;20459;-51
2022/10/18 04:42:30;;;;;;;10.00;8.17;;;15.60;99.90;;;;;;5010528;28;20513;-51
2022/10/18 04:44:57;;;;;;;10.63;8.90;;;15.60;99.90;;;;;;5011286;28;21008;-51
2022/10/18 04:47:24;;;;;;;9.90;8.90;;;15.50;99.90;;;;;;5008990;28;20468;-50
2022/10/18 04:49:50;;;;;;;10.60;8.57;;;15.50;99.90;;;;;;5011153;28;21245;-51
2022/10/18 04:52:18;;;;;;;78.50;26.93;;;15.50;99.90;;;;;;5004431;28;21154;-51
2022/10/18 04:54:45;;;;;;;31.23;15.63;;;15.50;99.90;;;;;;5008552;28;20548;-51
2022/10/18 04:57:12;;;;;;;38.47;16.97;;;15.50;99.90;;;;;;5010908;28;20467;-51
2022/10/18 04:59:38;;;;;;;18.03;10.50;;;15.40;99.90;;;;;;5007554;28;20464;-51
2022/10/18 05:02:05;;;;;;;12.00;10.93;;;15.40;99.90;;;;;;5008090;28;20977;-51
2022/10/18 05:04:31;;;;;;;17.23;12.27;;;15.40;99.90;;;;;;5009302;28;20991;-51
2022/10/18 05:06:58;;;;;;;13.63;11.77;;;15.40;99.90;;;;;;5007671;28;20463;-51
2022/10/18 05:09:26;;;;;;;11.13;9.93;;;15.40;99.90;;;;;;5004866;28;20499;-50
2022/10/18 05:11:55;;;;;;;11.20;10.10;;;15.40;99.90;;;;;;5009637;28;20495;-51
2022/10/18 05:14:21;;;;;;;12.83;10.47;;;15.30;99.90;;;;;;5008173;28;20479;-51
2022/10/18 05:16:48;;;;;;;10.60;9.60;;;15.30;99.90;;;;;;5009148;28;20534;-52
2022/10/18 05:19:15;;;;;;;11.50;10.07;;;15.30;99.90;;;;;;5005221;28;20452;-52
2022/10/18 05:21:41;;;;;;;27.70;18.50;;;15.30;99.90;;;;;;5003684;28;20468;-51
2022/10/18 05:24:09;;;;;;;42.70;25.20;;;15.30;99.90;;;;;;5006226;28;20459;-51
2022/10/18 05:26:37;;;;;;;33.00;20.67;;;15.30;99.90;;;;;;5010262;28;20490;-52
2022/10/18 05:29:04;;;;;;;40.73;22.00;;;15.30;99.90;;;;;;5009014;28;20642;-52
2022/10/18 05:31:31;;;;;;;22.20;13.30;;;15.30;99.90;;;;;;5007506;28;20546;-51
2022/10/18 05:33:57;;;;;;;491.20;347.23;;;15.20;99.90;;;;;;5009925;28;20526;-51
2022/10/18 05:36:24;;;;;;;19.90;15.07;;;15.20;99.90;;;;;;5002066;28;20511;-51
2022/10/18 05:38:52;;;;;;;26.20;18.57;;;15.20;99.90;;;;;;5009317;28;20841;-52
2022/10/18 05:41:19;;;;;;;16.80;12.20;;;15.20;99.90;;;;;;5011413;28;20471;-51
2022/10/18 05:43:47;;;;;;;28.70;17.07;;;15.20;99.90;;;;;;5003607;28;20815;-51
2022/10/18 05:46:13;;;;;;;13.73;11.40;;;15.20;99.90;;;;;;5007875;28;20479;-53
2022/10/18 05:48:40;;;;;;;19.83;12.43;;;15.20;99.90;;;;;;5008791;28;21064;-51
2022/10/18 05:51:07;;;;;;;26.73;16.17;;;15.10;99.90;;;;;;5008390;28;20510;-50
2022/10/18 05:53:33;;;;;;;56.53;25.33;;;15.10;99.90;;;;;;5003531;28;21023;-51
2022/10/18 05:56:01;;;;;;;87.60;36.90;;;15.10;99.90;;;;;;5009268;28;20484;-52
2022/10/18 05:58:28;;;;;;;76.93;32.27;;;15.10;99.90;;;;;;5006823;28;20490;-51
2022/10/18 06:00:58;;;;;;;48.53;24.23;;;15.10;99.90;;;;;;5009459;28;20468;-51
2022/10/18 06:03:26;;;;;;;111.07;44.00;;;15.10;99.90;;;;;;5009378;28;20463;-51
2022/10/18 06:05:52;;;;;;;76.47;33.87;;;15.10;99.90;;;;;;5011734;28;21020;-51
2022/10/18 06:08:19;;;;;;;25.73;16.50;;;15.10;99.90;;;;;;5012886;28;20549;-50
2022/10/18 06:10:46;;;;;;;18.27;13.57;;;15.10;99.90;;;;;;5010745;28;20499;-50
2022/10/18 06:13:12;;;;;;;12.37;10.20;;;15.10;99.90;;;;;;5011364;28;20468;-51
2022/10/18 06:15:39;;;;;;;13.60;10.57;;;15.00;99.90;;;;;;5007844;28;20549;-51
2022/10/18 06:18:06;;;;;;;10.73;9.33;;;15.10;99.90;;;;;;5008231;28;20479;-51
2022/10/18 06:20:33;;;;;;;12.63;11.33;;;15.00;99.90;;;;;;5005154;28;20468;-51
2022/10/18 06:23:00;;;;;;;10.30;8.90;;;15.10;99.90;;;;;;5007193;28;20467;-50
2022/10/18 06:25:26;;;;;;;11.37;10.27;;;15.10;99.90;;;;;;5005458;28;20523;-51
2022/10/18 06:27:53;;;;;;;14.60;10.10;;;15.00;99.90;;;;;;4998343;28;20447;-51
2022/10/18 06:30:20;;;;;;;14.20;9.90;;;15.10;99.90;;;;;;5000944;28;20906;-51
2022/10/18 06:32:47;;;;;;;12.33;9.60;;;15.10;99.90;;;;;;4998996;28;21016;-51
2022/10/18 06:35:15;;;;;;;9.90;8.90;;;15.10;99.90;;;;;;5010032;28;20537;-51
2022/10/18 06:37:41;;;;;;;10.93;9.13;;;15.10;99.90;;;;;;5007066;28;22354;-50
2022/10/18 06:40:09;;;;;;;13.13;8.77;;;15.10;99.90;;;;;;4991959;28;20510;-50
2022/10/18 06:42:36;;;;;;;12.73;8.87;;;15.10;99.90;;;;;;5001835;28;20459;-51
2022/10/18 06:45:02;;;;;;;12.87;9.23;;;15.10;99.90;;;;;;5004623;28;20552;-51
2022/10/18 06:47:29;;;;;;;10.63;9.40;;;15.10;99.90;;;;;;5003367;28;20748;-50
2022/10/18 06:49:55;;;;;;;11.13;9.60;;;15.10;99.90;;;;;;5002967;28;20520;-51
2022/10/18 06:52:24;;;;;;;13.63;9.53;;;15.10;99.90;;;;;;5001068;28;20545;-50
2022/10/18 06:54:51;;;;;;;9.00;8.10;;;15.10;99.90;;;;;;5001252;28;20490;-51
2022/10/18 06:57:20;;;;;;;12.03;8.70;;;15.10;99.90;;;;;;5001755;28;20953;-50
2022/10/18 06:59:48;;;;;;;11.63;7.63;;;15.10;99.90;;;;;;5005390;28;20463;-50
2022/10/18 07:02:16;;;;;;;11.10;8.80;;;15.10;99.90;;;;;;4996955;28;20476;-50
2022/10/18 07:04:43;;;;;;;8.77;7.80;;;15.10;99.90;;;;;;4999361;28;20483;-50
2022/10/18 07:07:10;;;;;;;9.87;8.97;;;15.20;99.90;;;;;;4999483;28;20494;-50
2022/10/18 07:09:38;;;;;;;9.03;8.13;;;15.20;99.90;;;;;;5001058;28;20565;-50
2022/10/18 07:12:04;;;;;;;9.50;8.20;;;15.20;99.90;;;;;;5002534;28;20555;-50
2022/10/18 07:14:31;;;;;;;14.40;9.03;;;15.20;99.90;;;;;;5002718;28;21189;-51
2022/10/18 07:16:59;;;;;;;9.37;8.47;;;15.20;99.90;;;;;;5004485;28;21035;-51
2022/10/18 07:19:25;;;;;;;9.53;8.50;;;15.20;99.90;;;;;;5003806;28;20508;-51
2022/10/18 07:21:52;;;;;;;11.43;9.43;;;15.20;99.90;;;;;;5006727;28;20467;-50
2022/10/18 07:24:19;;;;;;;9.80;8.80;;;15.20;99.90;;;;;;4990007;28;20547;-50
2022/10/18 07:26:46;;;;;;;14.80;7.97;;;15.20;99.90;;;;;;5004384;28;20486;-50
2022/10/18 07:29:13;;;;;;;11.57;8.33;;;15.20;99.90;;;;;;5005088;28;20483;-50
2022/10/18 07:31:40;;;;;;;9.83;7.73;;;15.10;99.90;;;;;;5007515;28;20464;-50
2022/10/18 07:34:08;;;;;;;10.47;8.53;;;15.10;99.90;;;;;;5009860;28;20447;-50
2022/10/18 07:36:34;;;;;;;8.07;7.37;;;15.10;99.90;;;;;;5005135;28;20591;-51
2022/10/18 07:39:01;;;;;;;8.70;6.80;;;15.10;99.90;;;;;;5003349;28;20464;-51
2022/10/18 07:41:28;;;;;;;8.10;7.30;;;15.10;99.90;;;;;;5014821;28;20447;-51
2022/10/18 07:43:56;;;;;;;11.90;7.80;;;15.00;99.90;;;;;;5018614;28;20468;-49
2022/10/18 07:46:23;;;;;;;8.30;7.00;;;15.00;99.90;;;;;;4997878;28;21052;-51
2022/10/18 07:48:50;;;;;;;8.53;7.73;;;15.10;99.90;;;;;;5009270;28;21003;-51
2022/10/18 07:51:18;;;;;;;19.60;10.43;;;15.00;99.90;;;;;;5012062;28;20487;-50
2022/10/18 07:53:44;;;;;;;7.57;6.87;;;15.10;99.90;;;;;;5012775;28;20864;-51
2022/10/18 07:56:14;;;;;;;7.73;6.93;;;15.10;99.90;;;;;;4997417;28;20484;-51
2022/10/18 07:58:41;;;;;;;9.27;7.00;;;15.00;99.90;;;;;;5015255;28;20482;-50
2022/10/18 08:01:10;;;;;;;13.07;7.63;;;15.10;99.90;;;;;;5012255;28;20460;-50
2022/10/18 08:03:37;;;;;;;7.90;7.10;;;15.10;99.90;;;;;;5000277;28;20462;-50
2022/10/18 08:06:07;;;;;;;11.13;7.00;;;15.00;99.90;;;;;;4998599;28;20489;-50
2022/10/18 08:08:35;;;;;;;11.27;7.53;;;15.00;99.90;;;;;;5004041;28;20510;-50
2022/10/18 08:11:03;;;;;;;9.23;8.13;;;15.00;99.90;;;;;;4998011;28;20455;-50
2022/10/18 08:13:30;;;;;;;9.43;8.20;;;15.00;99.90;;;;;;4998712;28;20451;-51
2022/10/18 08:16:00;;;;;;;10.17;7.57;;;15.00;99.90;;;;;;5001073;28;20492;-51
2022/10/18 08:18:28;;;;;;;14.13;7.93;;;15.00;99.90;;;;;;4999490;28;20538;-51
2022/10/18 08:20:55;;;;;;;13.97;7.53;;;15.00;99.90;;;;;;5006064;28;20467;-50
2022/10/18 08:23:21;;;;;;;7.93;6.77;;;15.00;99.90;;;;;;5003848;28;20869;-51
2022/10/18 08:25:48;;;;;;;21.43;7.40;;;15.00;99.90;;;;;;4995056;28;22649;-50
2022/10/18 08:28:16;;;;;;;7.50;6.70;;;15.00;99.90;;;;;;5005835;28;20459;-51
2022/10/18 08:30:43;;;;;;;8.27;7.43;;;15.00;99.90;;;;;;5002976;28;20498;-50
2022/10/18 08:33:10;;;;;;;8.33;7.57;;;15.00;99.90;;;;;;5004307;28;20891;-50
2022/10/18 08:35:38;;;;;;;14.30;9.20;;;15.00;99.90;;;;;;5004289;28;20549;-49
2022/10/18 08:38:09;;;;;;;12.57;7.70;;;15.00;99.90;;;;;;5002074;28;20477;-51
2022/10/18 08:40:36;;;;;;;7.50;6.90;;;15.10;99.90;;;;;;4998493;28;20464;-50
2022/10/18 08:43:08;;;;;;;11.80;8.50;;;15.00;99.90;;;;;;4998191;28;20551;-50
2022/10/18 08:45:40;;;;;;;9.17;7.60;;;15.10;99.90;;;;;;5003450;28;20557;-49
2022/10/18 08:48:15;;;;;;;9.20;7.97;;;15.10;99.90;;;;;;5001047;28;23237;-51
2022/10/18 08:50:44;;;;;;;9.30;7.60;;;15.10;99.90;;;;;;5002344;28;20512;-51
2022/10/18 08:53:16;;;;;;;8.53;7.60;;;15.10;99.90;;;;;;5000546;28;20906;-51
2022/10/18 08:55:51;;;;;;;8.00;7.30;;;15.10;99.90;;;;;;5002509;28;20569;-50
2022/10/18 08:58:20;;;;;;;8.57;7.67;;;15.20;99.90;;;;;;5007281;28;20463;-50
2022/10/18 09:01:07;;;;;;;9.13;7.97;;;15.20;99.90;;;;;;5005456;28;20495;-50
2022/10/18 09:03:53;;;;;;;14.20;6.73;;;15.10;99.90;;;;;;5005875;28;20885;-51
2022/10/18 09:06:26;;;;;;;10.67;7.10;;;15.10;99.90;;;;;;5003280;28;20903;-51
2022/10/18 09:09:15;;;;;;;8.40;7.60;;;15.10;99.90;;;;;;5008265;28;20462;-50
2022/10/18 09:11:52;;;;;;;7.70;7.00;;;15.10;99.90;;;;;;5008404;28;20467;-51
2022/10/18 09:14:43;;;;;;;7.43;6.80;;;15.10;99.90;;;;;;5009643;28;20558;-49
2022/10/18 09:17:18;;;;;;;7.80;7.00;;;15.10;99.90;;;;;;5010793;28;20545;-49
2022/10/18 09:19:58;;;;;;;9.80;7.83;;;15.10;99.90;;;;;;5009141;28;21191;-50
2022/10/18 09:22:48;;;;;;;9.83;7.33;;;15.20;99.90;;;;;;5011849;28;20537;-51
2022/10/18 09:25:19;;;;;;;8.33;7.53;;;15.20;99.90;;;;;;5003950;28;20516;-51
2022/10/18 09:27:52;;;;;;;8.37;7.57;;;15.20;99.90;;;;;;5004573;28;20526;-50
2022/10/18 09:30:39;;;;;;;9.17;8.27;;;15.20;99.90;;;;;;5011121;28;20491;-51
2022/10/18 09:33:19;;;;;;;9.53;7.13;;;15.20;99.90;;;;;;5012951;28;20526;-50
2022/10/18 09:35:50;;;;;;;9.27;7.97;;;15.20;99.90;;;;;;5010883;28;20487;-51
2022/10/18 09:38:23;;;;;;;7.87;7.17;;;15.20;99.90;;;;;;5011570;28;20463;-50
2022/10/18 09:40:55;;;;;;;10.47;7.00;;;15.20;99.90;;;;;;5013618;28;20506;-51
2022/10/18 09:43:25;;;;;;;7.37;6.67;;;15.20;99.90;;;;;;5013191;28;20884;-51
2022/10/18 09:45:54;;;;;;;8.03;7.23;;;15.20;99.90;;;;;;5009859;28;20496;-51
2022/10/18 09:48:26;;;;;;;7.90;7.20;;;15.20;99.90;;;;;;5008706;28;20467;-50
2022/10/18 09:50:56;;;;;;;8.53;7.73;;;15.20;99.90;;;;;;5003947;28;20514;-51
2022/10/18 09:53:34;;;;;;;11.87;7.97;;;15.20;99.90;;;;;;5010794;28;20518;-51
2022/10/18 09:56:03;;;;;;;8.30;7.57;;;15.20;99.90;;;;;;5008312;28;20479;-50
2022/10/18 09:58:45;;;;;;;8.97;8.07;;;15.20;99.90;;;;;;5009519;28;20546;-51
2022/10/18 10:01:14;;;;;;;8.63;7.77;;;15.20;99.90;;;;;;5006677;28;20945;-51
2022/10/18 10:03:41;;;;;;;8.80;7.90;;;15.20;99.90;;;;;;5007269;28;20510;-50
2022/10/18 10:06:24;;;;;;;13.00;7.37;;;15.20;99.90;;;;;;5003054;28;20566;-51
2022/10/18 10:09:00;;;;;;;9.37;8.10;;;15.20;99.90;;;;;;5004319;28;20555;-51
2022/10/18 10:11:32;;;;;;;9.10;8.20;;;15.20;99.90;;;;;;5007193;28;20511;-50
2022/10/18 10:14:08;;;;;;;10.03;8.97;;;15.20;99.90;;;;;;5006441;28;20503;-51
2022/10/18 10:16:43;;;;;;;11.40;8.40;;;15.20;99.90;;;;;;4999026;28;21016;-52
2022/10/18 10:19:20;;;;;;;9.47;8.13;;;15.10;99.90;;;;;;5008201;28;20549;-51
2022/10/18 10:21:49;;;;;;;8.17;7.43;;;15.20;99.90;;;;;;5010853;28;20949;-50
2022/10/18 10:24:24;;;;;;;9.57;7.43;;;15.10;99.90;;;;;;5008897;28;20513;-52
2022/10/18 10:26:57;;;;;;;11.23;10.10;;;15.10;99.90;;;;;;5009653;28;20467;-51
2022/10/18 10:29:50;;;;;;;9.70;7.93;;;15.10;99.90;;;;;;5008006;28;20468;-51
2022/10/18 10:32:19;;;;;;;9.13;6.47;;;15.10;99.90;;;;;;5000804;28;20464;-51
2022/10/18 10:34:46;;;;;;;9.07;7.83;;;15.10;99.90;;;;;;5008365;28;20484;-51
2022/10/18 10:37:31;;;;;;;9.47;8.57;;;15.10;99.90;;;;;;5002139;28;21051;-51
2022/10/18 10:40:14;;;;;;;7.90;7.20;;;15.10;99.90;;;;;;5005776;28;20455;-50
2022/10/18 10:43:15;;;;;;;9.93;7.80;;;15.10;99.90;;;;;;4991666;28;20555;-50
2022/10/18 10:46:00;;;;;;;10.40;8.00;;;15.10;99.90;;;;;;5003134;28;20484;-50
2022/10/18 10:48:28;;;;;;;12.37;7.47;;;15.10;99.90;;;;;;5002017;28;20468;-50
2022/10/18 10:50:59;;;;;;;10.37;8.30;;;15.10;99.90;;;;;;5005420;28;20989;-50
2022/10/18 10:53:34;;;;;;;8.30;7.50;;;15.10;99.90;;;;;;4994890;28;20558;-51
2022/10/18 10:56:03;;;;;;;7.70;7.10;;;15.10;99.90;;;;;;5007122;28;20514;-50
2022/10/18 10:58:35;;;;;;;6.77;6.13;;;15.10;99.90;;;;;;5004382;28;20534;-54
2022/10/18 11:01:19;;;;;;;7.93;7.23;;;15.10;99.90;;;;;;5007152;28;21013;-50
2022/10/18 11:03:47;;;;;;;7.50;6.80;;;15.10;99.90;;;;;;5009730;28;20517;-51
2022/10/18 11:06:44;;;;;;;12.80;7.17;;;15.00;99.90;;;;;;4999742;28;20562;-51
2022/10/18 11:09:24;;;;;;;8.53;7.73;;;15.00;99.90;;;;;;5005537;28;20545;-51
2022/10/18 11:12:02;;;;;;;11.13;8.23;;;15.00;99.90;;;;;;5007083;28;20490;-52
2022/10/18 11:14:34;;;;;;;8.27;7.43;;;15.00;99.90;;;;;;5006410;28;20468;-50
2022/10/18 11:17:11;;;;;;;9.20;8.30;;;15.10;99.90;;;;;;5001262;28;21004;-51
2022/10/18 11:19:49;;;;;;;9.20;8.30;;;15.10;99.90;;;;;;4998362;28;20513;-50
2022/10/18 11:22:19;;;;;;;8.33;7.63;;;15.10;99.90;;;;;;5006383;28;20463;-51
2022/10/18 11:24:46;;;;;;;8.30;7.53;;;15.10;99.90;;;;;;5003188;28;20565;-51
2022/10/18 11:27:24;;;;;;;8.20;7.40;;;15.10;99.90;;;;;;5003375;28;20492;-50
2022/10/18 11:30:15;;;;;;;9.50;8.00;;;15.10;99.90;;;;;;5000164;28;20997;-50
2022/10/18 11:32:50;;;;;;;8.93;8.03;;;15.20;99.90;;;;;;5002149;28;20464;-50
2022/10/18 11:35:33;;;;;;;8.77;7.87;;;15.10;99.90;;;;;;5001373;28;20537;-50
2022/10/18 11:38:12;;;;;;;14.07;8.50;;;15.20;99.90;;;;;;5000378;28;20460;-51
2022/10/18 11:40:50;;;;;;;9.20;7.30;;;15.20;99.90;;;;;;5004211;28;20535;-50
2022/10/18 11:43:25;;;;;;;9.70;7.53;;;15.20;99.90;;;;;;5001151;28;22514;-51
2022/10/18 11:46:01;;;;;;;10.23;6.87;;;15.20;99.90;;;;;;5001393;28;20964;-50
2022/10/18 11:48:55;;;;;;;8.40;7.30;;;15.30;99.90;;;;;;5006715;28;20463;-50
2022/10/18 11:51:30;;;;;;;8.53;7.57;;;15.30;99.90;;;;;;5008096;28;20578;-51
2022/10/18 11:54:14;;;;;;;10.27;7.50;;;15.30;99.90;;;;;;5008975;28;20463;-51
2022/10/18 11:56:47;;;;;;;8.67;7.60;;;15.30;99.90;;;;;;5005085;28;20455;-51
2022/10/18 11:59:27;;;;;;;9.50;7.07;;;15.30;99.90;;;;;;5009370;28;20875;-51
2022/10/18 12:02:03;;;;;;;8.80;7.90;;;15.30;99.90;;;;;;5001744;28;20451;-50
2022/10/18 12:04:36;;;;;;;8.33;7.30;;;15.30;99.90;;;;;;4999414;28;20542;-51
2022/10/18 12:07:05;;;;;;;7.43;6.83;;;15.30;99.90;;;;;;5009569;28;20463;-50
2022/10/18 12:09:36;;;;;;;10.50;8.10;;;15.30;99.90;;;;;;5007708;28;20491;-51
2022/10/18 12:12:16;;;;;;;8.57;7.20;;;15.30;99.90;;;;;;5006051;28;20523;-51
2022/10/18 12:14:48;;;;;;;7.90;7.20;;;15.40;99.90;;;;;;5007891;28;20537;-51
2022/10/18 12:17:22;;;;;;;8.03;7.33;;;15.40;99.90;;;;;;5009717;28;20865;-52
2022/10/18 12:19:51;;;;;;;8.70;7.63;;;15.50;99.90;;;;;;5007642;28;20865;-51
2022/10/18 12:22:25;;;;;;;7.90;7.10;;;15.50;99.90;;;;;;5009392;28;20468;-50
2022/10/18 12:24:52;;;;;;;9.27;8.37;;;15.50;99.90;;;;;;5007997;28;20479;-51
2022/10/18 12:27:24;;;;;;;9.43;8.50;;;15.50;99.90;;;;;;5008418;28;20495;-51
2022/10/18 12:29:58;;;;;;;9.60;8.60;;;15.50;99.90;;;;;;5009299;28;20467;-51
2022/10/18 12:32:28;;;;;;;9.83;8.00;;;15.60;99.90;;;;;;5007742;28;20464;-51
2022/10/18 12:34:59;;;;;;;9.37;8.47;;;15.70;99.90;;;;;;5007521;28;20483;-51
2022/10/18 12:37:54;;;;;;;9.23;8.33;;;15.70;99.90;;;;;;5008459;28;20460;-50
2022/10/18 12:40:25;;;;;;;9.73;8.70;;;15.80;99.90;;;;;;5002155;28;20557;-50
2022/10/18 12:42:53;;;;;;;11.17;9.97;;;15.80;99.90;;;;;;5012957;28;20466;-51
2022/10/18 12:45:27;;;;;;;11.27;9.43;;;15.80;99.90;;;;;;5002915;28;20577;-50
2022/10/18 12:47:54;;;;;;;12.63;9.17;;;15.80;99.90;;;;;;5003557;28;20961;-50
2022/10/18 12:50:30;;;;;;;12.23;9.10;;;15.80;99.90;;;;;;5010406;28;20557;-51
2022/10/18 12:53:24;;;;;;;10.57;9.47;;;15.80;99.90;;;;;;5009116;28;20463;-50
2022/10/18 12:55:52;;;;;;;15.40;13.40;;;15.90;99.90;;;;;;5010850;28;20599;-50